Time;durP1;ratioP1;P1;durP2;ratioP2;P2;SDS_P1;SDS_P2;PMS_P1;PMS_P2;Temp;Humidity;BMP_temperature;BMP_pressure;BME280_temperature;BME280_humidity;BME280_pressure;Samples;Min_cycle;Max_cycle;Signal;HPM_P1;HPM_P2
2023/10/28 00:01:30;;;;;;;0.10;0.10;;;;;;;13.65;83.35;97702.91;7355165;19;20061;-58
2023/10/28 00:03:56;;;;;;;0.10;0.10;;;;;;;13.67;83.37;97695.75;7358254;19;20482;-57
2023/10/28 00:06:22;;;;;;;0.10;0.10;;;;;;;13.68;83.77;97694.78;7362810;19;20009;-59
2023/10/28 00:08:47;;;;;;;0.00;0.00;;;;;;;13.70;83.29;97689.44;7363665;19;20002;-58
2023/10/28 00:11:13;;;;;;;0.10;0.10;;;;;;;13.71;83.71;97684.03;7360153;19;20458;-58
2023/10/28 00:13:39;;;;;;;0.10;0.10;;;;;;;13.72;83.15;97687.50;7363959;19;20008;-58
2023/10/28 00:16:05;;;;;;;0.10;0.10;;;;;;;13.59;83.34;97666.72;7356869;19;20007;-59
2023/10/28 00:18:31;;;;;;;0.03;0.03;;;;;;;13.69;83.06;97672.88;7363572;19;20039;-57
2023/10/28 00:20:57;;;;;;;0.10;0.10;;;;;;;13.70;82.97;97664.03;7361146;19;20450;-58
2023/10/28 00:23:25;;;;;;;0.10;0.10;;;;;;;13.59;83.11;97639.69;7364359;19;20426;-58
2023/10/28 00:25:50;;;;;;;0.10;0.10;;;;;;;13.67;83.10;97656.41;7356611;19;20010;-57
2023/10/28 00:28:16;;;;;;;0.10;0.10;;;;;;;13.65;83.10;97658.34;7363880;19;20757;-58
2023/10/28 00:30:41;;;;;;;0.10;0.10;;;;;;;13.62;83.04;97655.97;7356151;19;19994;-57
2023/10/28 00:33:07;;;;;;;0.10;0.10;;;;;;;13.57;82.49;97646.81;7365374;19;20010;-57
2023/10/28 00:35:32;;;;;;;0.10;0.10;;;;;;;13.55;82.97;97654.81;7360981;19;20010;-58
2023/10/28 00:37:58;;;;;;;0.10;0.10;;;;;;;13.47;82.59;97644.13;7363375;19;20099;-58
2023/10/28 00:40:28;;;;;;;0.10;0.10;;;;;;;13.49;82.79;97655.34;7362618;19;20478;-58
2023/10/28 00:42:54;;;;;;;0.10;0.10;;;;;;;13.43;82.82;97663.69;7359835;19;20026;-58
2023/10/28 00:45:19;;;;;;;0.10;0.10;;;;;;;13.40;82.91;97659.56;7357275;19;20000;-57
2023/10/28 00:47:46;;;;;;;0.10;0.10;;;;;;;13.35;82.46;97660.91;7367059;19;20017;-58
2023/10/28 00:50:14;;;;;;;0.10;0.10;;;;;;;13.25;82.34;97647.72;7365472;19;20007;-58
2023/10/28 00:52:43;;;;;;;0.10;0.10;;;;;;;13.30;82.72;97660.44;7358712;19;20042;-58
2023/10/28 00:55:10;;;;;;;0.10;0.10;;;;;;;13.25;82.94;97658.19;7358644;19;20011;-58
2023/10/28 00:57:40;;;;;;;0.00;0.00;;;;;;;13.10;82.93;97644.53;7361413;19;20093;-58
2023/10/28 01:00:06;;;;;;;0.10;0.10;;;;;;;13.18;82.47;97660.47;7360363;19;20089;-57
2023/10/28 01:02:36;;;;;;;0.10;0.10;;;;;;;13.15;82.85;97658.09;7359845;19;20026;-59
2023/10/28 01:05:02;;;;;;;0.10;0.10;;;;;;;13.11;82.41;97656.66;7362306;19;20667;-58
2023/10/28 01:07:29;;;;;;;0.10;0.10;;;;;;;13.08;82.72;97656.94;7360176;19;20110;-59
2023/10/28 01:09:55;;;;;;;0.10;0.10;;;;;;;12.96;82.48;97642.19;7360721;19;20343;-58
2023/10/28 01:12:23;;;;;;;0.10;0.10;;;;;;;13.00;82.79;97654.09;7363120;19;20482;-58
2023/10/28 01:14:52;;;;;;;0.10;0.10;;;;;;;12.88;82.91;97639.38;7357104;19;20705;-58
2023/10/28 01:17:17;;;;;;;0.10;0.10;;;;;;;12.95;82.64;97648.41;7360081;19;20015;-58
2023/10/28 01:19:43;;;;;;;0.10;0.10;;;;;;;12.93;82.60;97647.69;7365314;19;20015;-58
2023/10/28 01:22:08;;;;;;;0.10;0.10;;;;;;;12.89;82.70;97656.75;7361981;19;20570;-58
2023/10/28 01:24:35;;;;;;;0.10;0.10;;;;;;;12.85;82.65;97644.84;7363763;19;20010;-57
2023/10/28 01:27:01;;;;;;;0.10;0.10;;;;;;;12.85;83.16;97650.09;7363607;19;20756;-58
2023/10/28 01:29:28;;;;;;;0.10;0.10;;;;;;;12.81;82.92;97648.69;7365167;19;20495;-57
2023/10/28 01:31:54;;;;;;;0.10;0.10;;;;;;;12.78;82.64;97647.16;7366503;19;20021;-57
2023/10/28 01:34:21;;;;;;;0.00;0.00;;;;;;;12.77;82.87;97648.06;7359064;19;20442;-58
2023/10/28 01:36:47;;;;;;;;;;;;;;;12.78;81.47;97644.53;7357030;19;20035;-58
2023/10/28 01:39:13;;;;;;;0.10;0.10;;;;;;;12.72;82.57;97653.72;7364067;19;19923;-58
2023/10/28 01:41:38;;;;;;;0.10;0.10;;;;;;;12.70;82.64;97649.53;7357597;19;20072;-58
2023/10/28 01:44:04;;;;;;;0.10;0.10;;;;;;;12.66;83.09;97646.31;7360001;19;20893;-59
2023/10/28 01:46:30;;;;;;;0.10;0.10;;;;;;;12.64;82.82;97648.25;7359299;19;20014;-59
2023/10/28 01:48:55;;;;;;;0.10;0.10;;;;;;;12.61;82.84;97647.66;7365812;19;20085;-58
2023/10/28 01:51:21;;;;;;;0.10;0.10;;;;;;;12.60;83.20;97649.44;7363744;19;20078;-58
2023/10/28 01:53:46;;;;;;;0.10;0.10;;;;;;;12.59;82.85;97652.19;7362374;19;20019;-58
2023/10/28 01:56:11;;;;;;;0.10;0.10;;;;;;;12.57;82.92;97649.69;7360880;19;20031;-58
2023/10/28 01:58:37;;;;;;;0.10;0.10;;;;;;;12.54;83.13;97647.31;7341894;19;20022;-58
2023/10/28 02:01:03;;;;;;;0.10;0.10;;;;;;;12.53;83.27;97645.66;7364329;19;20113;-56
2023/10/28 02:03:28;;;;;;;0.10;0.10;;;;;;;12.54;82.98;97651.72;7361771;19;20350;-56
2023/10/28 02:05:54;;;;;;;0.10;0.10;;;;;;;12.44;83.41;97631.50;7331743;19;20002;-58
2023/10/28 02:08:19;;;;;;;0.10;0.10;;;;;;;12.53;82.96;97647.44;7362527;19;20002;-58
2023/10/28 02:10:45;;;;;;;0.10;0.10;;;;;;;12.54;83.10;97646.47;7360357;19;20002;-58
2023/10/28 02:13:10;;;;;;;0.00;0.00;;;;;;;12.50;83.02;97639.81;7361013;19;20003;-57
2023/10/28 02:15:36;;;;;;;0.10;0.10;;;;;;;12.53;83.03;97639.59;7361578;19;20356;-59
2023/10/28 02:18:04;;;;;;;0.10;0.10;;;;;;;12.53;83.28;97639.59;7356366;19;20353;-58
2023/10/28 02:20:30;;;;;;;0.10;0.10;;;;;;;12.52;83.30;97638.75;7362214;19;20002;-58
2023/10/28 02:22:55;;;;;;;0.00;0.00;;;;;;;12.52;83.09;97635.28;7359928;19;20013;-58
2023/10/28 02:25:23;;;;;;;0.10;0.10;;;;;;;12.53;82.57;97639.59;7359873;19;20006;-57
2023/10/28 02:27:49;;;;;;;0.10;0.10;;;;;;;12.52;83.18;97628.28;7360193;19;19994;-57
2023/10/28 02:30:14;;;;;;;0.10;0.10;;;;;;;12.53;82.96;97635.19;7360811;19;20022;-57
2023/10/28 02:32:40;;;;;;;0.10;0.10;;;;;;;12.53;82.80;97632.56;7362110;19;20030;-58
2023/10/28 02:35:06;;;;;;;0.00;0.00;;;;;;;12.52;82.95;97633.53;7360086;19;20014;-59
2023/10/28 02:37:31;;;;;;;0.10;0.10;;;;;;;12.54;83.13;97631.59;7357949;19;20017;-58
2023/10/28 02:39:56;;;;;;;0.10;0.10;;;;;;;12.53;82.99;97629.94;7353705;19;20018;-58
2023/10/28 02:42:22;;;;;;;0.10;0.10;;;;;;;12.53;82.51;97626.50;7367829;19;20007;-58
2023/10/28 02:44:49;;;;;;;0.10;0.10;;;;;;;12.53;83.27;97614.25;7363339;19;20014;-58
2023/10/28 02:47:15;;;;;;;0.10;0.10;;;;;;;12.48;83.08;97613.78;7359531;19;20770;-58
2023/10/28 02:49:40;;;;;;;0.10;0.10;;;;;;;12.53;82.79;97622.09;7361709;19;20013;-57
2023/10/28 02:52:06;;;;;;;0.10;0.10;;;;;;;12.53;82.77;97614.25;7358414;19;20006;-59
2023/10/28 02:54:32;;;;;;;0.00;0.00;;;;;;;12.40;83.01;97592.63;7360376;19;20006;-58
2023/10/28 02:56:57;;;;;;;0.10;0.10;;;;;;;12.14;82.83;97545.81;7360808;19;20010;-58
2023/10/28 02:59:23;;;;;;;0.10;0.10;;;;;;;12.51;83.24;97605.66;7359811;19;20025;-58
2023/10/28 03:01:48;;;;;;;0.10;0.10;;;;;;;12.50;82.69;97603.19;7354652;19;20044;-58
2023/10/28 03:04:13;;;;;;;0.10;0.10;;;;;;;12.48;82.74;97599.88;7359032;19;20081;-58
2023/10/28 03:06:39;;;;;;;0.10;0.10;;;;;;;12.43;82.71;97595.81;7368969;19;20003;-57
2023/10/28 03:09:04;;;;;;;0.10;0.10;;;;;;;12.44;82.51;97601.88;7362825;19;20048;-56
2023/10/28 03:11:30;;;;;;;0.10;0.10;;;;;;;12.40;82.78;97596.06;7369829;19;20003;-58
2023/10/28 03:13:55;;;;;;;0.10;0.10;;;;;;;12.38;82.55;97594.53;7364059;19;20014;-57
2023/10/28 03:16:20;;;;;;;0.00;0.00;;;;;;;12.36;82.61;97591.19;7366477;19;20603;-57
2023/10/28 03:18:46;;;;;;;0.10;0.10;;;;;;;12.33;82.78;97587.06;7338139;19;20006;-57
2023/10/28 03:21:12;;;;;;;0.00;0.00;;;;;;;12.31;83.04;97591.56;7363896;19;20486;-58
2023/10/28 03:23:37;;;;;;;0.03;0.03;;;;;;;12.24;82.55;97584.34;7368413;19;20010;-58
2023/10/28 03:26:06;;;;;;;0.10;0.10;;;;;;;12.28;82.54;97596.22;7369504;19;20011;-58
2023/10/28 03:28:31;;;;;;;0.10;0.10;;;;;;;12.20;82.80;97596.81;7362092;19;20503;-58
2023/10/28 03:30:57;;;;;;;0.10;0.10;;;;;;;12.22;82.81;97594.09;7366743;19;19998;-57
2023/10/28 03:33:23;;;;;;;0.10;0.10;;;;;;;12.20;82.89;97596.81;7368534;19;20010;-58
2023/10/28 03:35:48;;;;;;;0.10;0.10;;;;;;;12.15;82.40;97599.78;7369563;19;20055;-56
2023/10/28 03:38:13;;;;;;;0.10;0.10;;;;;;;12.14;82.23;97592.91;7366514;19;19998;-57
2023/10/28 03:40:39;;;;;;;0.10;0.10;;;;;;;12.11;82.69;97592.28;7364692;19;20031;-57
2023/10/28 03:43:05;;;;;;;0.10;0.10;;;;;;;12.08;82.32;97593.38;7367610;19;20014;-59
2023/10/28 03:45:30;;;;;;;0.10;0.10;;;;;;;12.06;82.62;97584.81;7365755;19;20119;-58
2023/10/28 03:47:56;;;;;;;0.10;0.10;;;;;;;12.01;82.39;97580.91;7363440;19;20011;-57
2023/10/28 03:50:21;;;;;;;0.10;0.10;;;;;;;12.03;82.47;97585.06;7368675;19;20033;-57
2023/10/28 03:52:47;;;;;;;0.10;0.10;;;;;;;12.00;82.46;97590.53;7363552;19;20037;-58
2023/10/28 03:55:12;;;;;;;0.00;0.00;;;;;;;12.02;82.34;97593.03;7366438;19;20086;-57
2023/10/28 03:57:37;;;;;;;0.10;0.10;;;;;;;12.01;82.55;97597.41;7361973;19;20074;-57
2023/10/28 04:00:03;;;;;;;0.10;0.10;;;;;;;11.99;82.90;97588.88;7367423;19;20138;-57
2023/10/28 04:02:29;;;;;;;0.10;0.10;;;;;;;11.99;82.98;97583.63;7362125;19;20042;-58
2023/10/28 04:04:57;;;;;;;0.10;0.10;;;;;;;11.99;82.83;97588.88;7358102;19;20015;-55
2023/10/28 04:07:23;;;;;;;0.10;0.10;;;;;;;11.98;83.06;97581.16;7362615;19;20541;-58
2023/10/28 04:09:48;;;;;;;0.10;0.10;;;;;;;11.96;83.21;97583.88;7367021;19;20014;-56
2023/10/28 04:12:13;;;;;;;0.10;0.10;;;;;;;11.98;83.18;97587.22;7364661;19;20007;-57
2023/10/28 04:14:39;;;;;;;0.10;0.10;;;;;;;11.96;83.29;97594.31;7364601;19;20030;-58
2023/10/28 04:17:04;;;;;;;0.08;0.08;;;;;;;11.95;83.10;97587.44;7365472;19;20044;-58
2023/10/28 04:19:30;;;;;;;0.10;0.10;;;;;;;11.95;82.84;97592.66;7367248;19;20478;-58
2023/10/28 04:21:55;;;;;;;0.05;0.05;;;;;;;11.93;82.92;97589.34;7368471;19;20040;-58
2023/10/28 04:24:22;;;;;;;0.10;0.10;;;;;;;11.93;82.99;97586.75;7364615;19;20662;-58
2023/10/28 04:26:47;;;;;;;0.00;0.00;;;;;;;11.85;82.66;97576.03;7366483;19;20018;-58
2023/10/28 04:29:12;;;;;;;0.10;0.10;;;;;;;11.90;82.57;97589.56;7360189;19;20792;-57
2023/10/28 04:31:38;;;;;;;0.10;0.10;;;;;;;11.88;82.52;97601.94;7364647;19;20032;-58
2023/10/28 04:34:04;;;;;;;0.10;0.10;;;;;;;11.88;82.74;97596.72;7357197;19;20086;-58
2023/10/28 04:36:29;;;;;;;0.10;0.10;;;;;;;11.86;82.46;97598.59;7356950;19;20011;-58
2023/10/28 04:38:55;;;;;;;0.10;0.10;;;;;;;11.83;82.75;97598.88;7366976;19;20533;-57
2023/10/28 04:41:20;;;;;;;0.00;0.00;;;;;;;11.82;82.64;97597.19;7362794;19;20002;-57
2023/10/28 04:43:45;;;;;;;0.10;0.10;;;;;;;11.76;82.93;97588.03;7362792;19;20014;-58
2023/10/28 04:46:11;;;;;;;0.10;0.10;;;;;;;11.79;82.98;97598.22;7367185;19;20488;-58
2023/10/28 04:48:38;;;;;;;0.10;0.10;;;;;;;11.77;82.45;97600.13;7366499;19;20011;-58
2023/10/28 04:51:05;;;;;;;0.10;0.10;;;;;;;11.75;82.58;97601.19;7366392;19;20023;-59
2023/10/28 04:53:31;;;;;;;0.10;0.10;;;;;;;11.73;82.86;97603.09;7368132;19;20010;-58
2023/10/28 04:55:56;;;;;;;0.10;0.10;;;;;;;11.61;82.63;97587.41;7365666;19;21014;-58
2023/10/28 04:58:24;;;;;;;0.10;0.10;;;;;;;11.67;82.87;97600.00;7363602;19;20512;-59
2023/10/28 05:00:49;;;;;;;0.00;0.00;;;;;;;11.66;82.52;97598.34;7363593;19;20014;-58
2023/10/28 05:03:14;;;;;;;0.10;0.10;;;;;;;11.66;82.85;97603.59;7365853;19;20006;-58
2023/10/28 05:05:40;;;;;;;0.10;0.10;;;;;;;11.66;83.08;97598.34;7363806;19;20034;-57
2023/10/28 05:08:05;;;;;;;0.00;0.00;;;;;;;11.65;83.12;97604.50;7361156;19;20376;-57
2023/10/28 05:10:31;;;;;;;0.10;0.10;;;;;;;11.53;82.95;97584.53;7361682;19;20367;-58
2023/10/28 05:12:56;;;;;;;0.10;0.10;;;;;;;11.64;82.60;97608.06;7370252;19;20016;-59
2023/10/28 05:15:22;;;;;;;0.00;0.00;;;;;;;11.62;82.82;97612.59;7353958;19;20022;-58
2023/10/28 05:17:47;;;;;;;0.10;0.10;;;;;;;11.61;82.66;97600.50;7366591;19;20039;-58
2023/10/28 05:20:13;;;;;;;0.10;0.10;;;;;;;11.60;82.94;97603.19;7357950;19;20057;-59
2023/10/28 05:22:41;;;;;;;0.10;0.10;;;;;;;11.57;82.70;97601.66;7366984;19;20010;-58
2023/10/28 05:25:10;;;;;;;0.10;0.10;;;;;;;11.55;82.43;97606.16;7358699;19;20014;-58
2023/10/28 05:27:35;;;;;;;0.10;0.10;;;;;;;11.51;82.71;97604.75;7362294;19;20042;-56
2023/10/28 05:30:04;;;;;;;0.10;0.10;;;;;;;11.52;82.79;97606.41;7361185;19;20007;-57
2023/10/28 05:32:30;;;;;;;0.08;0.08;;;;;;;11.50;82.72;97607.47;7362610;19;20020;-58
2023/10/28 05:34:56;;;;;;;0.10;0.10;;;;;;;11.48;82.54;97604.13;7361818;19;20014;-56
2023/10/28 05:37:22;;;;;;;0.00;0.00;;;;;;;11.46;82.58;97612.09;7361326;19;20007;-58
2023/10/28 05:39:47;;;;;;;0.10;0.10;;;;;;;11.40;82.52;97596.88;7364125;19;20007;-56
2023/10/28 05:42:14;;;;;;;0.10;0.10;;;;;;;11.39;82.52;97600.44;7362778;19;20130;-58
2023/10/28 05:44:40;;;;;;;0.10;0.10;;;;;;;11.30;82.65;97595.91;7359361;19;20015;-58
2023/10/28 05:47:07;;;;;;;0.10;0.10;;;;;;;11.44;82.74;97616.59;7358441;19;20007;-58
2023/10/28 05:49:33;;;;;;;0.05;0.05;;;;;;;11.43;82.47;97620.16;7363748;19;20010;-58
2023/10/28 05:51:58;;;;;;;0.10;0.10;;;;;;;11.41;82.90;97625.50;7353395;19;20018;-58
2023/10/28 05:54:24;;;;;;;0.00;0.00;;;;;;;11.42;83.09;97621.94;7362469;19;20006;-58
2023/10/28 05:56:49;;;;;;;0.10;0.10;;;;;;;11.43;82.90;97628.00;7366771;19;20500;-58
2023/10/28 05:59:15;;;;;;;0.10;0.10;;;;;;;11.45;83.14;97618.25;7362944;19;20046;-58
2023/10/28 06:01:40;;;;;;;0.00;0.00;;;;;;;11.44;83.13;97619.22;7362875;19;20002;-58
2023/10/28 06:04:06;;;;;;;0.10;0.10;;;;;;;11.48;83.21;97623.25;7362915;19;20753;-57
2023/10/28 06:06:32;;;;;;;0.10;0.10;;;;;;;11.50;83.07;97623.13;7362069;19;20343;-57
2023/10/28 06:08:57;;;;;;;0.10;0.10;;;;;;;11.50;83.13;97621.34;7361251;19;20022;-57
2023/10/28 06:11:23;;;;;;;0.10;0.10;;;;;;;11.53;83.03;97613.28;7357757;19;20030;-58
2023/10/28 06:13:49;;;;;;;0.10;0.10;;;;;;;11.49;82.99;97609.25;7357309;19;20439;-59
2023/10/28 06:16:14;;;;;;;0.03;0.03;;;;;;;11.53;82.98;97613.28;7361706;19;20010;-58
2023/10/28 06:18:40;;;;;;;0.10;0.10;;;;;;;11.59;82.84;97622.44;7361174;19;20014;-58
2023/10/28 06:21:05;;;;;;;0.03;0.03;;;;;;;11.49;82.84;97606.63;7357609;19;20509;-58
2023/10/28 06:23:31;;;;;;;0.00;0.00;;;;;;;11.60;82.95;97622.31;7360476;19;20011;-58
2023/10/28 06:25:56;;;;;;;0.00;0.00;;;;;;;11.58;82.82;97620.78;7367659;19;20078;-57
2023/10/28 06:28:22;;;;;;;0.10;0.10;;;;;;;11.62;83.13;97623.06;7362375;19;20032;-58
2023/10/28 06:30:48;;;;;;;0.10;0.10;;;;;;;11.48;82.94;97604.97;7362891;19;20577;-57
2023/10/28 06:33:14;;;;;;;0.10;0.10;;;;;;;11.62;82.99;97628.28;7363681;19;20022;-58
2023/10/28 06:35:39;;;;;;;0.10;0.10;;;;;;;11.63;82.69;97634.34;7361907;19;20025;-57
2023/10/28 06:38:06;;;;;;;0.10;0.10;;;;;;;11.52;82.97;97611.63;7364181;19;20027;-58
2023/10/28 06:40:32;;;;;;;0.10;0.10;;;;;;;11.63;82.81;97622.09;7367071;19;20788;-58
2023/10/28 06:43:00;;;;;;;0.10;0.10;;;;;;;11.66;82.84;97629.72;7374696;19;20596;-58
2023/10/28 06:45:25;;;;;;;0.10;0.10;;;;;;;11.67;82.80;97627.94;7368188;19;20060;-58
2023/10/28 06:47:51;;;;;;;0.10;0.10;;;;;;;11.68;82.83;97627.81;7371308;19;20027;-58
2023/10/28 06:50:19;;;;;;;0.00;0.00;;;;;;;11.72;82.90;97630.19;7373427;19;20451;-59
2023/10/28 06:52:48;;;;;;;0.10;0.10;;;;;;;11.70;83.06;97635.53;7368735;19;20023;-59
2023/10/28 06:55:14;;;;;;;0.10;0.10;;;;;;;11.74;83.22;97625.69;7369400;19;20010;-58
2023/10/28 06:57:39;;;;;;;0.10;0.10;;;;;;;11.76;82.76;97629.00;7369843;19;20800;-58
2023/10/28 07:00:05;;;;;;;0.10;0.10;;;;;;;11.76;82.81;97626.38;7362847;19;20450;-57
2023/10/28 07:02:32;;;;;;;0.10;0.10;;;;;;;11.78;82.63;97634.94;7363673;19;20011;-59
2023/10/28 07:04:57;;;;;;;0.10;0.10;;;;;;;11.79;82.91;97628.75;7362048;19;20018;-59
2023/10/28 07:07:23;;;;;;;0.05;0.05;;;;;;;11.79;82.49;97629.59;7369288;19;20473;-57
2023/10/28 07:09:48;;;;;;;0.10;0.10;;;;;;;11.80;82.69;97630.44;7373000;19;20025;-58
2023/10/28 07:12:14;;;;;;;0.10;0.10;;;;;;;11.79;82.62;97632.22;7368069;19;20777;-58
2023/10/28 07:14:39;;;;;;;0.10;0.10;;;;;;;11.81;82.25;97637.31;7363827;19;20018;-59
2023/10/28 07:17:04;;;;;;;0.10;0.10;;;;;;;11.81;82.36;97632.94;7370282;19;20010;-59
2023/10/28 07:19:30;;;;;;;0.08;0.08;;;;;;;11.82;82.28;97633.81;7368741;19;20021;-59
2023/10/28 07:21:56;;;;;;;0.10;0.10;;;;;;;11.80;82.65;97628.63;7362664;19;20014;-57
2023/10/28 07:24:21;;;;;;;0.08;0.08;;;;;;;11.85;82.64;97636.16;7360879;19;20034;-59
2023/10/28 07:26:47;;;;;;;0.10;0.10;;;;;;;11.86;82.35;97635.22;7367851;19;20029;-59
2023/10/28 07:29:12;;;;;;;0.10;0.10;;;;;;;11.89;82.60;97632.38;7359306;19;20489;-58
2023/10/28 07:31:38;;;;;;;0.10;0.10;;;;;;;11.89;82.70;97633.19;7362962;19;20006;-58
2023/10/28 07:34:07;;;;;;;0.10;0.10;;;;;;;11.91;82.25;97639.16;7361826;19;20119;-58
2023/10/28 07:36:33;;;;;;;0.10;0.10;;;;;;;11.93;82.88;97642.47;7364394;19;20011;-58
2023/10/28 07:39:01;;;;;;;0.10;0.10;;;;;;;11.94;82.56;97638.91;7368302;19;20539;-58
2023/10/28 07:41:29;;;;;;;0.10;0.10;;;;;;;11.99;82.54;97640.34;7363842;19;20042;-59
2023/10/28 07:43:55;;;;;;;0.10;0.10;;;;;;;12.00;82.48;97644.63;7359257;19;20017;-59
2023/10/28 07:46:20;;;;;;;0.10;0.10;;;;;;;12.02;82.81;97651.41;7365147;19;20642;-59
2023/10/28 07:48:46;;;;;;;0.10;0.10;;;;;;;12.04;82.51;97649.50;7365586;19;20015;-58
2023/10/28 07:51:13;;;;;;;0.10;0.10;;;;;;;12.06;82.61;97652.81;7368916;19;20081;-58
2023/10/28 07:53:39;;;;;;;0.00;0.00;;;;;;;12.09;82.48;97649.97;7363263;19;20019;-58
2023/10/28 07:56:04;;;;;;;0.10;0.10;;;;;;;12.10;82.96;97649.00;7366487;19;20039;-59
2023/10/28 07:58:30;;;;;;;0.10;0.10;;;;;;;12.15;82.49;97651.28;7357212;19;20034;-58
2023/10/28 08:00:55;;;;;;;0.08;0.08;;;;;;;12.05;82.41;97638.06;7364155;19;20546;-58
2023/10/28 08:03:20;;;;;;;0.10;0.10;;;;;;;12.13;82.90;97646.16;7359199;19;20086;-57
2023/10/28 08:05:46;;;;;;;0.10;0.10;;;;;;;12.22;82.48;97654.25;7368411;19;20712;-59
2023/10/28 08:08:11;;;;;;;0.10;0.10;;;;;;;12.26;82.58;97653.06;7371631;19;20093;-59
2023/10/28 08:10:40;;;;;;;0.10;0.10;;;;;;;12.28;82.48;97646.75;7360232;19;19991;-58
2023/10/28 08:13:05;;;;;;;0.10;0.10;;;;;;;12.32;82.92;97652.59;7368824;19;20015;-58
2023/10/28 08:15:30;;;;;;;0.00;0.00;;;;;;;12.32;82.66;97653.41;7360967;19;20467;-57
2023/10/28 08:17:56;;;;;;;0.10;0.10;;;;;;;12.37;82.50;97655.69;7363592;19;20018;-59
2023/10/28 08:20:21;;;;;;;0.10;0.10;;;;;;;12.40;82.66;97656.25;7366114;19;19994;-59
2023/10/28 08:22:47;;;;;;;0.10;0.10;;;;;;;12.43;82.85;97655.19;7367225;19;20018;-60
2023/10/28 08:25:16;;;;;;;0.10;0.10;;;;;;;12.46;82.62;97660.16;7361359;19;20804;-58
2023/10/28 08:27:44;;;;;;;0.10;0.10;;;;;;;12.46;82.79;97649.69;7364713;19;20094;-59
2023/10/28 08:30:15;;;;;;;0.10;0.10;;;;;;;12.42;82.61;97646.50;7350379;19;19999;-60
2023/10/28 08:32:42;;;;;;;0.10;0.10;;;;;;;12.55;82.84;97667.28;7360381;19;20838;-58
2023/10/28 08:35:09;;;;;;;0.10;0.10;;;;;;;12.59;82.39;97655.63;7357904;19;20661;-59
2023/10/28 08:37:34;;;;;;;0.10;0.10;;;;;;;12.48;82.52;97639.97;7356998;19;20764;-59
2023/10/28 08:40:00;;;;;;;0.10;0.10;;;;;;;12.62;82.67;97639.69;7362044;19;20018;-59
2023/10/28 08:42:25;;;;;;;0.10;0.10;;;;;;;12.78;82.54;97654.19;7354982;19;20014;-60
2023/10/28 08:44:52;;;;;;;0.10;0.10;;;;;;;12.82;82.53;97650.34;7358902;19;20010;-60
2023/10/28 08:47:21;;;;;;;0.10;0.10;;;;;;;12.97;82.51;97655.16;7359879;19;20006;-59
2023/10/28 08:49:49;;;;;;;0.10;0.10;;;;;;;13.06;82.90;97658.81;7360991;19;20018;-60
2023/10/28 08:52:21;;;;;;;0.00;0.00;;;;;;;13.17;82.40;97657.94;7358880;19;20010;-57
2023/10/28 08:54:47;;;;;;;0.03;0.03;;;;;;;13.26;82.21;97659.03;7364358;19;20019;-57
2023/10/28 08:57:14;;;;;;;0.10;0.10;;;;;;;13.30;82.38;97656.03;7361555;19;20130;-57
2023/10/28 08:59:39;;;;;;;0.10;0.10;;;;;;;13.38;82.09;97652.75;7357989;19;20765;-57
2023/10/28 09:02:09;;;;;;;0.10;0.10;;;;;;;13.46;82.41;97661.66;7364603;19;20082;-57
2023/10/28 09:04:35;;;;;;;0.10;0.10;;;;;;;13.57;82.21;97652.91;7354541;19;20014;-58
2023/10/28 09:07:02;;;;;;;0.10;0.10;;;;;;;13.68;82.37;97659.84;7356297;19;20585;-57
2023/10/28 09:09:27;;;;;;;0.20;0.20;;;;;;;13.80;82.30;97658.84;7360030;19;20380;-58
2023/10/28 09:12:00;;;;;;;0.10;0.10;;;;;;;13.93;82.12;97659.44;7356277;19;20010;-57
2023/10/28 09:14:26;;;;;;;0.10;0.10;;;;;;;13.99;81.90;97650.25;7353489;19;20024;-58
2023/10/28 09:16:51;;;;;;;0.10;0.10;;;;;;;14.03;81.78;97646.38;7358543;19;20082;-58
2023/10/28 09:19:19;;;;;;;0.10;0.10;;;;;;;14.22;81.28;97659.59;7359463;19;20011;-56
2023/10/28 09:21:46;;;;;;;0.10;0.10;;;;;;;14.28;81.35;97666.94;7357526;19;20023;-59
2023/10/28 09:24:11;;;;;;;0.10;0.10;;;;;;;14.37;81.12;97675.81;7358896;19;22058;-58
2023/10/28 09:26:37;;;;;;;0.10;0.10;;;;;;;14.46;80.95;97669.78;7356229;19;20488;-55
2023/10/28 09:29:03;;;;;;;0.10;0.10;;;;;;;14.58;80.80;97665.28;7360446;19;20479;-59
2023/10/28 09:31:29;;;;;;;0.10;0.10;;;;;;;14.74;79.96;97660.31;7355359;19;20018;-57
2023/10/28 09:33:57;;;;;;;0.10;0.10;;;;;;;14.90;80.18;97656.34;7356298;19;20010;-58
2023/10/28 09:36:23;;;;;;;0.10;0.10;;;;;;;15.10;79.84;97663.28;7360543;19;20018;-57
2023/10/28 09:38:50;;;;;;;0.10;0.10;;;;;;;15.28;79.17;97666.06;7357343;19;20022;-58
2023/10/28 09:41:18;;;;;;;0.10;0.10;;;;;;;15.48;79.40;97669.50;7359380;19;20454;-58
2023/10/28 09:43:44;;;;;;;0.10;0.10;;;;;;;15.65;79.13;97674.06;7355618;19;20052;-58
2023/10/28 09:46:10;;;;;;;0.10;0.10;;;;;;;15.81;79.08;97682.25;7358216;19;20395;-57
2023/10/28 09:48:39;;;;;;;0.10;0.10;;;;;;;15.98;78.99;97677.22;7357572;19;20715;-57
2023/10/28 09:51:05;;;;;;;0.10;0.10;;;;;;;16.03;78.58;97686.34;7353955;19;20691;-58
2023/10/28 09:53:35;;;;;;;0.10;0.10;;;;;;;16.17;78.46;97679.78;7357538;19;20388;-57
2023/10/28 09:56:02;;;;;;;0.10;0.10;;;;;;;16.24;78.26;97682.66;7356536;19;20021;-59
2023/10/28 09:59:02;;;;;;;0.10;0.10;;;;;;;16.43;78.76;97687.88;7356098;19;20098;-58
2023/10/28 10:01:38;;;;;;;0.10;0.10;;;;;;;16.51;77.91;97687.13;7363032;19;20019;-58
2023/10/28 10:04:21;;;;;;;0.10;0.10;;;;;;;16.65;78.17;97686.63;7357201;19;20017;-59
2023/10/28 10:06:47;;;;;;;0.10;0.10;;;;;;;16.70;77.69;97683.56;7357509;19;20018;-59
2023/10/28 10:09:18;;;;;;;0.10;0.10;;;;;;;16.88;77.55;97670.44;7359118;19;20056;-59
2023/10/28 10:11:43;;;;;;;0.10;0.10;;;;;;;17.01;77.12;97676.19;7354011;19;20021;-60
2023/10/28 10:14:12;;;;;;;0.10;0.10;;;;;;;17.25;77.23;97680.88;7354040;19;20018;-58
2023/10/28 10:16:44;;;;;;;0.10;0.10;;;;;;;17.47;77.13;97676.94;7356778;19;20023;-59
2023/10/28 10:19:11;;;;;;;0.10;0.10;;;;;;;17.66;75.85;97681.22;7357627;19;20007;-59
2023/10/28 10:21:37;;;;;;;0.10;0.10;;;;;;;17.85;75.30;97687.19;7358247;19;20798;-59
2023/10/28 10:24:04;;;;;;;0.10;0.10;;;;;;;18.09;74.64;97683.03;7357516;19;20027;-59
2023/10/28 10:26:34;;;;;;;0.20;0.20;;;;;;;18.38;75.00;97674.78;7361258;19;20014;-58
2023/10/28 10:29:03;;;;;;;0.15;0.15;;;;;;;18.59;74.68;97690.22;7350640;19;20598;-60
2023/10/28 10:31:31;;;;;;;0.10;0.10;;;;;;;18.79;74.21;97694.28;7352246;19;20018;-59
2023/10/28 10:34:07;;;;;;;0.10;0.10;;;;;;;19.10;74.35;97681.31;7344501;19;20011;-60
2023/10/28 10:36:42;;;;;;;0.17;0.17;;;;;;;19.24;73.44;97679.84;7355378;19;20011;-59
2023/10/28 10:39:11;;;;;;;0.10;0.10;;;;;;;19.46;72.72;97678.38;7359894;19;20012;-59
2023/10/28 10:41:37;;;;;;;0.10;0.10;;;;;;;19.63;72.72;97674.78;7350588;19;20022;-59
2023/10/28 10:44:36;;;;;;;0.10;0.10;;;;;;;19.92;73.69;97674.28;7358581;19;20010;-59
2023/10/28 10:47:02;;;;;;;0.10;0.10;;;;;;;19.99;72.04;97668.28;7355930;19;20950;-60
2023/10/28 10:49:31;;;;;;;0.10;0.10;;;;;;;20.14;72.57;97682.50;7359425;19;20055;-60
2023/10/28 10:52:01;;;;;;;0.10;0.10;;;;;;;20.38;72.42;97679.78;7353938;19;21249;-60
2023/10/28 10:54:30;;;;;;;0.10;0.10;;;;;;;20.45;71.92;97678.09;7359536;19;20006;-59
2023/10/28 10:56:55;;;;;;;0.10;0.10;;;;;;;20.46;71.59;97676.28;7357990;19;20011;-61
2023/10/28 10:59:21;;;;;;;0.10;0.10;;;;;;;20.52;71.67;97674.78;7353364;19;20038;-59
2023/10/28 11:01:46;;;;;;;0.10;0.10;;;;;;;20.63;71.70;97677.06;7354409;19;20651;-61
2023/10/28 11:04:12;;;;;;;0.10;0.10;;;;;;;20.69;71.75;97682.53;7353613;19;20003;-60
2023/10/28 11:06:37;;;;;;;0.10;0.10;;;;;;;20.73;71.48;97680.31;7358945;19;20561;-59
2023/10/28 11:09:04;;;;;;;0.10;0.10;;;;;;;20.77;70.94;97671.03;7356902;19;20494;-60
2023/10/28 11:11:30;;;;;;;0.10;0.10;;;;;;;20.85;71.59;97676.31;7355560;19;20009;-60
2023/10/28 11:13:56;;;;;;;0.10;0.10;;;;;;;20.99;71.55;97670.25;7353330;19;20011;-61
2023/10/28 11:16:25;;;;;;;0.10;0.10;;;;;;;21.21;71.20;97660.66;7353616;19;20839;-61
2023/10/28 11:18:50;;;;;;;0.10;0.10;;;;;;;21.45;70.98;97672.97;7353957;19;20036;-60
2023/10/28 11:21:16;;;;;;;0.10;0.10;;;;;;;21.74;70.61;97672.22;7356214;19;20007;-61
2023/10/28 11:23:43;;;;;;;0.13;0.13;;;;;;;21.97;70.23;97656.25;7353449;19;20186;-61
2023/10/28 11:26:08;;;;;;;0.10;0.10;;;;;;;22.36;69.34;97665.84;7368732;19;20014;-60
2023/10/28 11:28:34;;;;;;;0.10;0.10;;;;;;;22.66;68.79;97665.81;7361868;19;20007;-60
2023/10/28 11:30:59;;;;;;;0.10;0.10;;;;;;;22.97;68.70;97663.75;7360424;19;20038;-59